createdAt,value
2019-03-20T00:00:16.817Z,7.40
2019-03-20T00:02:46.264Z,7.30
2019-03-20T00:05:15.615Z,7.30
2019-03-20T00:07:45.059Z,7.30
2019-03-20T00:10:14.555Z,7.30
2019-03-20T00:12:43.987Z,7.20
2019-03-20T00:15:13.352Z,7.20
2019-03-20T00:17:42.762Z,7.20
2019-03-20T00:20:12.318Z,7.20
2019-03-20T00:22:43.239Z,7.20
2019-03-20T00:25:12.867Z,7.20
2019-03-20T00:27:42.417Z,7.20
2019-03-20T00:30:12.880Z,7.20
2019-03-20T00:32:42.264Z,7.20
2019-03-20T00:35:11.760Z,7.20
2019-03-20T00:37:41.190Z,7.20
2019-03-20T00:40:11.473Z,7.20
2019-03-20T00:42:40.960Z,7.20
2019-03-20T00:45:11.613Z,7.20
2019-03-20T00:47:41.101Z,7.30
2019-03-20T00:50:14.846Z,7.30
2019-03-20T00:52:44.284Z,7.30
2019-03-20T00:55:14.015Z,7.30
2019-03-20T00:57:44.061Z,7.30
2019-03-20T01:00:16.209Z,7.30
2019-03-20T01:02:45.567Z,7.30
2019-03-20T01:05:15.463Z,7.30
2019-03-20T01:07:45.286Z,7.30
2019-03-20T01:10:17.773Z,7.30
2019-03-20T01:12:47.415Z,7.40
2019-03-20T01:15:16.913Z,7.40
2019-03-20T01:17:46.503Z,7.40
2019-03-20T01:20:17.191Z,7.40
2019-03-20T01:22:46.673Z,7.50
2019-03-20T01:25:16.184Z,7.50
2019-03-20T01:27:45.921Z,7.50
2019-03-20T01:30:31.658Z,7.60
2019-03-20T01:33:05.705Z,7.60
2019-03-20T01:35:35.215Z,7.60
2019-03-20T01:38:05.140Z,7.70
2019-03-20T01:40:34.597Z,7.70
2019-03-20T01:43:04.141Z,7.70
2019-03-20T01:45:33.507Z,7.70
2019-03-20T01:48:02.892Z,7.70
2019-03-20T01:50:32.343Z,7.70
2019-03-20T01:53:01.724Z,7.70
2019-03-20T01:55:31.140Z,7.70
2019-03-20T01:58:00.635Z,7.70
2019-03-20T02:00:30.048Z,7.80
2019-03-20T02:02:59.481Z,7.70
2019-03-20T02:05:35.982Z,7.80
2019-03-20T02:07:59.900Z,7.80
2019-03-20T02:10:29.323Z,7.80
2019-03-20T02:12:59.009Z,7.80
2019-03-20T02:15:38.170Z,7.80
2019-03-20T02:18:00.781Z,7.80
2019-03-20T02:20:30.179Z,7.80
2019-03-20T02:22:59.612Z,7.70
2019-03-20T02:25:28.996Z,7.80
2019-03-20T02:27:58.465Z,7.70
2019-03-20T02:30:27.874Z,7.70
2019-03-20T02:32:57.292Z,7.70
2019-03-20T02:35:26.736Z,7.70
2019-03-20T02:37:56.158Z,7.60
2019-03-20T02:40:25.615Z,7.60
2019-03-20T02:42:55.069Z,7.60
2019-03-20T02:45:24.486Z,7.50
2019-03-20T02:47:53.961Z,7.50
2019-03-20T02:50:23.320Z,7.50
2019-03-20T02:52:52.797Z,7.50
2019-03-20T02:55:22.229Z,7.50
2019-03-20T02:57:51.741Z,7.50
2019-03-20T03:00:21.433Z,7.50
2019-03-20T03:02:50.920Z,7.40
2019-03-20T03:05:20.441Z,7.40
2019-03-20T03:07:49.874Z,7.30
2019-03-20T03:10:19.329Z,7.30
2019-03-20T03:12:48.784Z,7.30
2019-03-20T03:15:18.143Z,7.20
2019-03-20T03:17:47.633Z,7.20
2019-03-20T03:20:17.077Z,7.10
2019-03-20T03:22:46.458Z,7.10
2019-03-20T03:25:15.977Z,7.10
2019-03-20T03:27:45.378Z,7.10
2019-03-20T03:30:14.831Z,7.10
2019-03-20T03:32:44.297Z,7.00
2019-03-20T03:35:17.662Z,7.00
2019-03-20T03:37:45.289Z,7.00
2019-03-20T03:40:14.798Z,7.00
2019-03-20T03:42:44.384Z,7.00
2019-03-20T03:45:13.924Z,7.00
2019-03-20T03:47:43.490Z,6.90
2019-03-20T03:50:13.196Z,6.90
2019-03-20T03:52:42.681Z,6.90
2019-03-20T03:55:12.169Z,6.90
2019-03-20T03:57:41.584Z,6.80
2019-03-20T04:00:13.026Z,6.80
2019-03-20T04:02:42.496Z,6.70
2019-03-20T04:05:11.914Z,6.70
2019-03-20T04:07:41.373Z,6.70
2019-03-20T04:10:11.766Z,6.70
2019-03-20T04:12:41.207Z,6.60
2019-03-20T04:15:12.190Z,6.60
2019-03-20T04:17:41.612Z,6.60
2019-03-20T04:20:12.275Z,6.60
2019-03-20T04:22:41.740Z,6.60
2019-03-20T04:25:11.261Z,6.50
2019-03-20T04:27:40.680Z,6.50
2019-03-20T04:30:10.763Z,6.50
2019-03-20T04:32:40.200Z,6.50
2019-03-20T04:35:10.562Z,6.50
2019-03-20T04:37:40.010Z,6.60
2019-03-20T04:40:09.739Z,6.50
2019-03-20T04:42:39.129Z,6.50
2019-03-20T04:45:09.482Z,6.50
2019-03-20T04:47:38.927Z,6.50
2019-03-20T04:50:09.025Z,6.50
2019-03-20T04:52:38.348Z,6.50
2019-03-20T04:55:07.869Z,6.50
2019-03-20T04:57:37.300Z,6.50
2019-03-20T05:00:08.811Z,6.50
2019-03-20T05:02:38.246Z,6.50
2019-03-20T05:05:07.750Z,6.50
2019-03-20T05:07:37.189Z,6.50
2019-03-20T05:10:07.860Z,6.40
2019-03-20T05:12:37.323Z,6.40
2019-03-20T05:15:07.168Z,6.40
2019-03-20T05:17:36.551Z,6.30
2019-03-20T05:20:06.923Z,6.20
2019-03-20T05:22:36.370Z,6.20
2019-03-20T05:25:06.302Z,6.20
2019-03-20T05:27:35.750Z,6.20
2019-03-20T05:30:05.467Z,6.10
2019-03-20T05:32:34.951Z,6.10
2019-03-20T05:35:04.836Z,6.10
2019-03-20T05:37:34.306Z,6.10
2019-03-20T05:40:03.632Z,6.00
2019-03-20T05:42:33.060Z,6.10
2019-03-20T05:45:02.453Z,6.10
2019-03-20T05:47:31.843Z,6.10
2019-03-20T05:50:01.275Z,6.10
2019-03-20T05:52:30.728Z,6.10
2019-03-20T05:55:00.444Z,6.10
2019-03-20T05:57:29.885Z,6.20
2019-03-20T05:59:59.269Z,6.20
2019-03-20T06:02:28.775Z,6.20
2019-03-20T06:04:58.207Z,6.20
2019-03-20T06:07:27.635Z,6.30
2019-03-20T06:09:57.045Z,6.30
2019-03-20T06:12:26.446Z,6.30
2019-03-20T06:14:55.747Z,6.30
2019-03-20T06:17:25.187Z,6.30
2019-03-20T06:19:54.672Z,6.30
2019-03-20T06:22:24.065Z,6.30
2019-03-20T06:24:53.579Z,6.40
2019-03-20T06:27:23.063Z,6.40
2019-03-20T06:29:52.514Z,6.50
2019-03-20T06:32:21.961Z,6.50
2019-03-20T06:34:51.420Z,6.60
2019-03-20T06:37:20.834Z,6.60
2019-03-20T06:39:50.329Z,6.70
2019-03-20T06:42:19.787Z,6.70
2019-03-20T06:44:49.245Z,6.80
2019-03-20T06:47:19.009Z,6.90
2019-03-20T06:49:48.360Z,6.90
2019-03-20T06:52:17.768Z,7.00
2019-03-20T06:54:47.268Z,7.00
2019-03-20T06:57:16.689Z,7.10
2019-03-20T07:00:28.829Z,7.20
2019-03-20T07:02:58.960Z,7.30
2019-03-20T07:06:05.145Z,7.30
2019-03-20T07:08:41.404Z,7.40
2019-03-20T07:11:16.224Z,7.50
2019-03-20T07:13:45.663Z,7.50
2019-03-20T07:16:15.080Z,7.50
2019-03-20T07:18:44.459Z,7.60
2019-03-20T07:21:13.856Z,7.60
2019-03-20T07:23:43.240Z,7.60
2019-03-20T07:26:12.694Z,7.60
2019-03-20T07:28:42.030Z,7.70
2019-03-20T07:31:15.662Z,7.70
2019-03-20T07:33:42.594Z,7.70
2019-03-20T07:36:12.115Z,7.70
2019-03-20T07:38:41.516Z,7.70
2019-03-20T07:41:10.909Z,7.70
2019-03-20T07:43:41.194Z,7.70
2019-03-20T07:46:10.569Z,7.60
2019-03-20T07:48:40.806Z,7.60
2019-03-20T07:51:10.399Z,7.70
2019-03-20T07:53:39.745Z,7.70
2019-03-20T07:56:09.232Z,7.70
2019-03-20T07:58:38.577Z,7.70
2019-03-20T08:01:08.209Z,7.80
2019-03-20T08:03:37.704Z,7.80
2019-03-20T08:06:07.151Z,7.80
2019-03-20T08:08:36.558Z,7.80
2019-03-20T08:11:06.110Z,7.80
2019-03-20T08:13:35.499Z,7.90
2019-03-20T08:16:04.958Z,7.90
2019-03-20T08:18:34.361Z,7.90
2019-03-20T08:21:03.680Z,8.00
2019-03-20T08:23:33.087Z,8.00
2019-03-20T08:26:02.436Z,8.00
2019-03-20T08:28:31.793Z,8.00
2019-03-20T08:31:01.273Z,8.10
2019-03-20T08:33:30.705Z,8.20
2019-03-20T08:36:19.133Z,8.20
2019-03-20T08:38:48.557Z,8.20
2019-03-20T08:41:17.985Z,8.20
2019-03-20T08:43:47.429Z,8.20
2019-03-20T08:46:16.932Z,8.20
2019-03-20T08:48:48.295Z,8.20
2019-03-20T08:51:17.478Z,8.20
2019-03-20T08:53:46.887Z,8.20
2019-03-20T08:56:16.231Z,8.20
2019-03-20T08:58:45.690Z,8.30
2019-03-20T09:01:15.080Z,8.30
2019-03-20T09:03:44.508Z,8.30
2019-03-20T09:06:13.859Z,8.40
2019-03-20T09:08:43.325Z,8.40
2019-03-20T09:11:12.689Z,8.50
2019-03-20T09:13:42.154Z,8.60
2019-03-20T09:16:11.654Z,8.60
2019-03-20T09:18:41.080Z,8.70
2019-03-20T09:21:10.421Z,8.80
2019-03-20T09:23:40.874Z,8.80
2019-03-20T09:26:10.560Z,8.90
2019-03-20T09:28:39.947Z,8.90
2019-03-20T09:31:09.499Z,8.90
2019-03-20T09:33:38.873Z,9.00
2019-03-20T09:36:08.305Z,9.00
2019-03-20T09:38:43.449Z,9.00
2019-03-20T09:41:08.823Z,9.20
2019-03-20T09:43:38.148Z,9.20
2019-03-20T09:46:07.565Z,9.20
2019-03-20T09:48:36.889Z,9.20
2019-03-20T09:51:06.306Z,9.30
2019-03-20T09:53:35.721Z,9.30
2019-03-20T09:56:05.069Z,9.30
2019-03-20T09:58:34.818Z,9.40
2019-03-20T10:01:04.241Z,9.40
2019-03-20T10:03:33.582Z,9.50
2019-03-20T10:06:03.018Z,9.50
2019-03-20T10:08:32.413Z,9.60
2019-03-20T10:11:01.737Z,9.60
2019-03-20T10:13:31.160Z,9.60
2019-03-20T10:16:00.539Z,9.70
2019-03-20T10:18:29.924Z,9.70
2019-03-20T10:20:59.281Z,9.70
2019-03-20T10:23:28.750Z,9.70
2019-03-20T10:25:58.207Z,9.70
2019-03-20T10:28:27.629Z,9.70
2019-03-20T10:30:57.135Z,9.80
2019-03-20T10:33:26.562Z,9.90
2019-03-20T10:35:56.003Z,10.00
2019-03-20T10:38:25.477Z,10.00
2019-03-20T10:40:54.870Z,10.10
2019-03-20T10:43:24.314Z,10.20
2019-03-20T10:45:53.902Z,10.30
2019-03-20T10:48:23.330Z,10.20
2019-03-20T10:50:52.778Z,10.30
2019-03-20T10:53:22.262Z,10.40
2019-03-20T10:55:51.950Z,10.40
2019-03-20T10:58:21.646Z,10.40
2019-03-20T11:00:51.137Z,10.50
2019-03-20T11:03:20.603Z,10.60
2019-03-20T11:05:50.044Z,10.60
2019-03-20T11:08:19.738Z,10.60
2019-03-20T11:10:49.172Z,10.60
2019-03-20T11:13:18.548Z,10.60
2019-03-20T11:15:48.022Z,10.70
2019-03-20T11:18:17.573Z,10.70
2019-03-20T11:20:47.112Z,10.70
2019-03-20T11:23:16.572Z,10.70
2019-03-20T11:25:46.001Z,10.80
2019-03-20T11:28:15.365Z,10.90
2019-03-20T11:30:44.864Z,11.00
2019-03-20T11:33:14.282Z,11.10
2019-03-20T11:35:43.739Z,11.10
2019-03-20T11:38:13.137Z,11.10
2019-03-20T11:40:42.495Z,11.10
2019-03-20T11:43:12.044Z,11.10
2019-03-20T11:45:41.494Z,11.00
2019-03-20T11:48:10.936Z,10.90
2019-03-20T11:50:40.294Z,10.90
2019-03-20T11:53:09.729Z,10.80
2019-03-20T11:55:39.214Z,10.90
2019-03-20T11:58:08.793Z,10.90
2019-03-20T12:00:38.133Z,10.90
2019-03-20T12:03:07.674Z,11.00
2019-03-20T12:05:37.054Z,11.00
2019-03-20T12:08:06.469Z,11.00
2019-03-20T12:10:35.799Z,11.10
2019-03-20T12:13:05.301Z,11.20
2019-03-20T12:15:34.704Z,11.30
2019-03-20T12:18:04.642Z,11.40
2019-03-20T12:20:34.057Z,11.50
2019-03-20T12:23:03.670Z,11.50
2019-03-20T12:25:33.038Z,11.50
2019-03-20T12:28:02.603Z,11.60
2019-03-20T12:30:32.088Z,11.60
2019-03-20T12:33:01.463Z,11.70
2019-03-20T12:35:31.693Z,11.60
2019-03-20T12:38:01.094Z,11.60
2019-03-20T12:40:30.775Z,11.60
2019-03-20T12:43:00.232Z,11.60
2019-03-20T12:45:31.551Z,11.60
2019-03-20T12:48:01.196Z,11.50
2019-03-20T12:50:31.074Z,11.50
2019-03-20T12:53:01.953Z,11.60
2019-03-20T12:55:31.777Z,11.50
2019-03-20T12:58:01.187Z,11.50
2019-03-20T13:00:30.533Z,11.40
2019-03-20T13:02:59.880Z,11.40
2019-03-20T13:05:29.437Z,11.30
2019-03-20T13:08:05.512Z,11.30
2019-03-20T13:10:30.128Z,11.30
2019-03-20T13:12:59.730Z,11.40
2019-03-20T13:15:29.426Z,11.40
2019-03-20T13:17:59.055Z,11.40
2019-03-20T13:20:28.471Z,11.40
2019-03-20T13:23:18.074Z,11.40
2019-03-20T13:25:47.631Z,11.40
2019-03-20T13:28:17.194Z,11.50
2019-03-20T13:30:56.208Z,11.50
2019-03-20T13:33:26.317Z,11.50
2019-03-20T13:35:56.192Z,11.50
2019-03-20T13:38:25.641Z,11.50
2019-03-20T13:40:55.158Z,11.50
2019-03-20T13:43:24.738Z,11.60
2019-03-20T13:45:54.314Z,11.60
2019-03-20T13:48:23.877Z,11.70
2019-03-20T13:50:53.474Z,11.70
2019-03-20T13:53:23.061Z,11.70
2019-03-20T13:55:52.638Z,11.60
2019-03-20T13:58:21.991Z,11.60
2019-03-20T14:00:51.644Z,11.60
2019-03-20T14:03:21.074Z,11.60
2019-03-20T14:05:50.663Z,11.70
2019-03-20T14:08:20.312Z,11.70
2019-03-20T14:10:50.660Z,11.70
2019-03-20T14:13:20.685Z,11.80
2019-03-20T14:15:50.259Z,11.80
2019-03-20T14:18:19.821Z,11.80
2019-03-20T14:20:49.424Z,11.80
2019-03-20T14:23:18.975Z,11.80
2019-03-20T14:25:48.544Z,11.80
2019-03-20T14:28:18.099Z,11.80
2019-03-20T14:30:47.695Z,11.80
2019-03-20T14:33:17.314Z,11.80
2019-03-20T14:35:46.931Z,11.80
2019-03-20T14:38:16.299Z,11.80
2019-03-20T14:40:45.873Z,11.70
2019-03-20T14:43:15.301Z,11.70
2019-03-20T14:45:44.998Z,11.80
2019-03-20T14:48:14.572Z,11.80
2019-03-20T14:50:44.159Z,11.80
2019-03-20T14:53:13.541Z,11.80
2019-03-20T14:55:43.031Z,11.80
2019-03-20T14:58:12.591Z,11.80
2019-03-20T15:00:42.047Z,11.90
2019-03-20T15:03:11.493Z,11.80
2019-03-20T15:05:40.979Z,11.80
2019-03-20T15:08:10.396Z,11.80
2019-03-20T15:10:46.012Z,11.80
2019-03-20T15:13:11.043Z,11.80
2019-03-20T15:15:46.844Z,11.90
2019-03-20T15:18:16.431Z,11.80
2019-03-20T15:20:45.860Z,11.80
2019-03-20T15:23:15.328Z,11.80
2019-03-20T15:25:44.897Z,11.90
2019-03-20T15:28:14.285Z,11.90
2019-03-20T15:30:43.856Z,11.80
2019-03-20T15:33:13.287Z,11.80
2019-03-20T15:35:42.711Z,11.80
2019-03-20T15:38:12.337Z,11.80
2019-03-20T15:40:41.765Z,11.80
2019-03-20T15:43:11.229Z,11.80
2019-03-20T15:45:40.841Z,11.80
2019-03-20T15:48:10.211Z,11.80
2019-03-20T15:50:39.679Z,11.80
2019-03-20T15:53:09.147Z,11.80
2019-03-20T15:55:38.703Z,11.70
2019-03-20T15:58:08.136Z,11.70
2019-03-20T16:00:37.531Z,11.70
2019-03-20T16:03:09.948Z,11.70
2019-03-20T16:05:39.351Z,11.70
2019-03-20T16:08:08.711Z,11.70
2019-03-20T16:10:38.218Z,11.70
2019-03-20T16:13:07.548Z,11.70
2019-03-20T16:15:36.960Z,11.70
2019-03-20T16:18:06.527Z,11.70
2019-03-20T16:20:35.932Z,11.60
2019-03-20T16:23:05.828Z,11.60
2019-03-20T16:25:35.580Z,11.60
2019-03-20T16:28:04.982Z,11.50
2019-03-20T16:30:34.423Z,11.50
2019-03-20T16:33:03.958Z,11.50
2019-03-20T16:35:34.801Z,11.40
2019-03-20T16:38:04.360Z,11.40
2019-03-20T16:40:33.948Z,11.40
2019-03-20T16:43:03.546Z,11.40
2019-03-20T16:45:32.921Z,11.30
2019-03-20T16:48:02.289Z,11.30
2019-03-20T16:50:31.912Z,11.30
2019-03-20T16:53:01.458Z,11.30
2019-03-20T16:55:30.834Z,11.20
2019-03-20T16:58:00.349Z,11.20
2019-03-20T17:00:30.411Z,11.20
2019-03-20T17:03:00.215Z,11.10
2019-03-20T17:05:29.889Z,11.10
2019-03-20T17:07:59.436Z,11.10
2019-03-20T17:10:31.039Z,11.00
2019-03-20T17:13:00.519Z,11.00
2019-03-20T17:15:30.535Z,10.90
2019-03-20T17:17:59.949Z,10.90
2019-03-20T17:20:29.383Z,10.90
2019-03-20T17:22:58.816Z,10.90
2019-03-20T17:25:28.733Z,10.80
2019-03-20T17:27:58.310Z,10.80
2019-03-20T17:30:33.008Z,10.70
2019-03-20T17:33:02.549Z,10.70
2019-03-20T17:35:32.101Z,10.60
2019-03-20T17:38:01.550Z,10.60
2019-03-20T17:40:31.086Z,10.50
2019-03-20T17:43:00.524Z,10.50
2019-03-20T17:45:31.482Z,10.40
2019-03-20T17:48:00.925Z,10.40
2019-03-20T17:50:31.096Z,10.30
2019-03-20T17:53:00.475Z,10.20
2019-03-20T17:55:29.937Z,10.20
2019-03-20T17:57:59.408Z,10.20
2019-03-20T18:00:36.389Z,10.10
2019-03-20T18:03:06.101Z,10.10
2019-03-20T18:05:36.620Z,10.10
2019-03-20T18:08:06.740Z,10.00
2019-03-20T18:10:36.362Z,10.00
2019-03-20T18:13:06.679Z,9.90
2019-03-20T18:15:36.723Z,9.90
2019-03-20T18:18:06.891Z,9.90
2019-03-20T18:20:36.461Z,9.80
2019-03-20T18:23:06.581Z,9.80
2019-03-20T18:25:36.166Z,9.80
2019-03-20T18:28:06.231Z,9.80
2019-03-20T18:30:36.197Z,9.70
2019-03-20T18:33:05.840Z,9.70
2019-03-20T18:35:35.370Z,9.70
2019-03-20T18:38:05.671Z,9.70
2019-03-20T18:40:35.082Z,9.70
2019-03-20T18:43:04.621Z,9.60
2019-03-20T18:45:34.452Z,9.60
2019-03-20T18:48:04.344Z,9.60
2019-03-20T18:50:33.742Z,9.50
2019-03-20T18:53:03.285Z,9.50
2019-03-20T18:55:32.733Z,9.50
2019-03-20T18:58:02.256Z,9.50
2019-03-20T19:00:31.725Z,9.40
2019-03-20T19:03:01.570Z,9.40
2019-03-20T19:06:00.577Z,9.40
2019-03-20T19:08:30.160Z,9.40
2019-03-20T19:10:59.654Z,9.30
2019-03-20T19:13:29.086Z,9.30
2019-03-20T19:15:58.563Z,9.30
2019-03-20T19:18:28.106Z,9.30
2019-03-20T19:20:57.603Z,9.20
2019-03-20T19:23:27.124Z,9.20
2019-03-20T19:25:56.575Z,9.20
2019-03-20T19:28:26.022Z,9.20
2019-03-20T19:30:55.660Z,9.20
2019-03-20T19:33:25.056Z,9.10
2019-03-20T19:35:54.495Z,9.10
2019-03-20T19:38:34.223Z,9.10
2019-03-20T19:40:54.956Z,9.10
2019-03-20T19:43:24.400Z,9.10
2019-03-20T19:45:53.903Z,9.10
2019-03-20T19:48:23.360Z,9.10
2019-03-20T19:50:52.736Z,9.10
2019-03-20T19:53:22.179Z,9.10
2019-03-20T19:55:51.539Z,9.10
2019-03-20T19:58:20.977Z,9.00
2019-03-20T20:00:50.379Z,9.00
2019-03-20T20:03:19.830Z,9.00
2019-03-20T20:05:49.255Z,9.00
2019-03-20T20:08:18.697Z,9.00
2019-03-20T20:10:48.105Z,8.90
2019-03-20T20:13:17.533Z,8.90
2019-03-20T20:15:46.938Z,8.90
2019-03-20T20:18:16.285Z,8.90
2019-03-20T20:20:45.753Z,8.90
2019-03-20T20:23:15.250Z,8.90
2019-03-20T20:25:44.721Z,8.90
2019-03-20T20:28:14.194Z,8.90
2019-03-20T20:30:43.695Z,8.90
2019-03-20T20:33:13.083Z,8.90
2019-03-20T20:35:42.530Z,8.80
2019-03-20T20:38:12.001Z,8.80
2019-03-20T20:40:41.467Z,8.70
2019-03-20T20:43:10.913Z,8.70
2019-03-20T20:45:40.368Z,8.80
2019-03-20T20:48:09.832Z,8.70
2019-03-20T20:50:39.296Z,8.70
2019-03-20T20:53:08.788Z,8.70
2019-03-20T20:55:38.218Z,8.70
2019-03-20T20:58:07.564Z,8.60
2019-03-20T21:00:36.961Z,8.60
2019-03-20T21:03:06.419Z,8.60
2019-03-20T21:05:35.916Z,8.60
2019-03-20T21:08:05.723Z,8.60
2019-03-20T21:10:35.228Z,8.50
2019-03-20T21:13:04.656Z,8.50
2019-03-20T21:15:51.949Z,8.50
2019-03-20T21:19:02.078Z,8.50
2019-03-20T21:21:42.942Z,8.40
2019-03-20T21:24:26.860Z,8.40
2019-03-20T21:27:43.365Z,8.40
2019-03-20T21:30:53.075Z,8.30
2019-03-20T21:33:53.623Z,8.30
2019-03-20T21:37:07.123Z,8.30
2019-03-20T21:39:37.146Z,8.20
2019-03-20T21:43:06.926Z,8.20
2019-03-20T21:46:22.265Z,8.20
2019-03-20T21:48:52.137Z,8.20
2019-03-20T21:51:22.042Z,8.10
2019-03-20T21:54:39.388Z,8.10
2019-03-20T21:57:30.873Z,8.10
2019-03-20T22:00:45.349Z,8.10
2019-03-20T22:03:15.241Z,8.10
2019-03-20T22:06:22.833Z,8.10
2019-03-20T22:08:52.852Z,8.10
2019-03-20T22:11:58.757Z,8.00
2019-03-20T22:14:29.651Z,8.10
2019-03-20T22:17:49.875Z,8.00
2019-03-20T22:20:41.374Z,8.00
2019-03-20T22:23:53.710Z,8.00
2019-03-20T22:27:06.244Z,8.00
2019-03-20T22:29:36.232Z,7.90
2019-03-20T22:32:51.855Z,7.90
2019-03-20T22:35:30.057Z,7.90
2019-03-20T22:38:00.621Z,7.90
2019-03-20T22:41:11.049Z,7.90
2019-03-20T22:44:02.280Z,7.90
2019-03-20T22:47:14.690Z,7.90
2019-03-20T22:50:09.827Z,7.90
2019-03-20T22:53:15.154Z,7.90
2019-03-20T22:56:37.720Z,7.80
2019-03-20T22:59:07.652Z,7.80
2019-03-20T23:01:48.697Z,7.80
2019-03-20T23:04:23.170Z,7.70
2019-03-20T23:06:53.123Z,7.70
2019-03-20T23:09:22.987Z,7.70
2019-03-20T23:11:52.967Z,7.70
2019-03-20T23:14:22.887Z,7.80
2019-03-20T23:16:52.791Z,7.70
2019-03-20T23:19:22.722Z,7.60
2019-03-20T23:21:52.612Z,7.40
2019-03-20T23:24:22.510Z,7.40
2019-03-20T23:26:52.441Z,7.30
2019-03-20T23:29:22.331Z,7.30
2019-03-20T23:31:52.304Z,7.30
2019-03-20T23:34:22.287Z,7.30
2019-03-20T23:36:52.499Z,7.30
2019-03-20T23:39:22.444Z,7.20
2019-03-20T23:41:52.359Z,7.20
2019-03-20T23:44:22.259Z,7.20
2019-03-20T23:46:52.895Z,7.20
2019-03-20T23:49:23.477Z,7.20
2019-03-20T23:51:53.510Z,7.20
2019-03-20T23:54:32.698Z,7.20
2019-03-20T23:57:02.656Z,7.20
2019-03-20T23:59:32.543Z,7.20
